OCN1299 LGSK-EDDM
Flight info
| Callsign | OCN1299 |
|---|---|
| Flight time | N/A |
| Altitude | 34000 |
| Route | TSL UL617 MAKED DCT LONTA UL608 DOLEV DCT PETOV DCT GOLVA DCT VATET DCT REDBU Q112 NAPSA NAPSA4A |
| Aircraft | A320/M-SDE3FGHIRWY/LB1 |
Departure
| Time | 2026-05-08 15:19 |
|---|---|
| Airport | Skiathos Island National Airport (LGSK) |
Arrival
| Time | N/A |
|---|---|
| Airport | Munich Airport (EDDM) |
| Time | Latitude | Longitude | Altitude | Speed | Heading |
|---|---|---|---|---|---|
| 2026-05-08 14:41 | 39.17989 | 23.50272 | 39 ft | 0 kts | 289° |
| 2026-05-08 15:09 | 39.17989 | 23.50273 | 39 ft | 0 kts | 289° |
| 2026-05-08 15:09 | 39.17985 | 23.50287 | 66 ft | 3 kts | 289° |
| 2026-05-08 15:10 | 39.17979 | 23.50312 | 34 ft | 3 kts | 289° |
| 2026-05-08 15:10 | 39.17973 | 23.50336 | 39 ft | 3 kts | 272° |
| 2026-05-08 15:10 | 39.17976 | 23.50358 | 38 ft | 3 kts | 230° |
| 2026-05-08 15:10 | 39.17987 | 23.50370 | 38 ft | 1 kts | 199° |
| 2026-05-08 15:11 | 39.17988 | 23.50371 | 38 ft | 0 kts | 199° |
| 2026-05-08 15:11 | 39.17977 | 23.50366 | 38 ft | 2 kts | 199° |
| 2026-05-08 15:11 | 39.17973 | 23.50364 | 38 ft | 0 kts | 199° |
| 2026-05-08 15:13 | 39.17967 | 23.50361 | 39 ft | 0 kts | 200° |
| 2026-05-08 15:13 | 39.17948 | 23.50353 | 40 ft | 7 kts | 199° |
| 2026-05-08 15:13 | 39.17887 | 23.50325 | 40 ft | 11 kts | 199° |
| 2026-05-08 15:14 | 39.17814 | 23.50293 | 39 ft | 11 kts | 199° |
| 2026-05-08 15:14 | 39.17748 | 23.50265 | 39 ft | 9 kts | 192° |
| 2026-05-08 15:14 | 39.17681 | 23.50244 | 39 ft | 10 kts | 195° |
| 2026-05-08 15:14 | 39.17621 | 23.50221 | 39 ft | 7 kts | 197° |
| 2026-05-08 15:15 | 39.17583 | 23.50227 | 37 ft | 5 kts | 144° |
| 2026-05-08 15:15 | 39.17553 | 23.50266 | 39 ft | 6 kts | 137° |
| 2026-05-08 15:15 | 39.17525 | 23.50281 | 40 ft | 7 kts | 172° |
| 2026-05-08 15:15 | 39.17447 | 23.50251 | 38 ft | 14 kts | 199° |
| 2026-05-08 15:16 | 39.17347 | 23.50206 | 33 ft | 17 kts | 199° |
| 2026-05-08 15:16 | 39.17263 | 23.50168 | 26 ft | 11 kts | 199° |
| 2026-05-08 15:16 | 39.17183 | 23.50132 | 22 ft | 9 kts | 199° |
| 2026-05-08 15:16 | 39.17129 | 23.50109 | 20 ft | 9 kts | 197° |
| 2026-05-08 15:17 | 39.17075 | 23.50090 | 17 ft | 7 kts | 188° |
| 2026-05-08 15:17 | 39.17024 | 23.50087 | 12 ft | 8 kts | 214° |
| 2026-05-08 15:17 | 39.17028 | 23.50062 | 12 ft | 0 kts | 349° |
| 2026-05-08 15:17 | 39.17031 | 23.50065 | 13 ft | 3 kts | 14° |
| 2026-05-08 15:18 | 39.17039 | 23.50069 | 13 ft | 0 kts | 21° |
| 2026-05-08 15:18 | 39.17214 | 23.50146 | 24 ft | 67 kts | 19° |
| 2026-05-08 15:18 | 39.17912 | 23.50456 | 46 ft | 140 kts | 18° |
| 2026-05-08 15:19 | 39.18856 | 23.50888 | 788 ft | 143 kts | 21° |
| 2026-05-08 15:19 | 39.19831 | 23.51303 | 1447 ft | 156 kts | 21° |
| 2026-05-08 15:19 | 39.20933 | 23.51725 | 1770 ft | 177 kts | 8° |
| 2026-05-08 15:19 | 39.22228 | 23.51454 | 2035 ft | 202 kts | 344° |
| 2026-05-08 15:20 | 39.23620 | 23.50812 | 2324 ft | 224 kts | 339° |
| 2026-05-08 15:20 | 39.25083 | 23.50062 | 3028 ft | 223 kts | 338° |
| 2026-05-08 15:20 | 39.26511 | 23.49368 | 3765 ft | 230 kts | 337° |
| 2026-05-08 15:20 | 39.28101 | 23.48634 | 4108 ft | 255 kts | 338° |
| 2026-05-08 15:21 | 39.29844 | 23.47865 | 4646 ft | 272 kts | 338° |
| 2026-05-08 15:21 | 39.31658 | 23.47093 | 5495 ft | 276 kts | 338° |
| 2026-05-08 15:21 | 39.33488 | 23.46327 | 6411 ft | 278 kts | 338° |
| 2026-05-08 15:21 | 39.35277 | 23.45450 | 7113 ft | 274 kts | 327° |
| 2026-05-08 15:22 | 39.36964 | 23.44273 | 7977 ft | 275 kts | 326° |
| 2026-05-08 15:22 | 39.38650 | 23.43098 | 8875 ft | 276 kts | 324° |
| 2026-05-08 15:22 | 39.40338 | 23.41922 | 9778 ft | 276 kts | 323° |
| 2026-05-08 15:22 | 39.42018 | 23.40748 | 10461 ft | 284 kts | 323° |
| 2026-05-08 15:23 | 39.43817 | 23.39473 | 10699 ft | 307 kts | 324° |
| 2026-05-08 15:23 | 39.45737 | 23.38111 | 11156 ft | 319 kts | 324° |
| 2026-05-08 15:23 | 39.47704 | 23.36727 | 11834 ft | 324 kts | 324° |
| 2026-05-08 15:23 | 39.49702 | 23.35333 | 12538 ft | 328 kts | 324° |
| 2026-05-08 15:24 | 39.51720 | 23.33927 | 13238 ft | 332 kts | 325° |
| 2026-05-08 15:24 | 39.53765 | 23.32501 | 13936 ft | 335 kts | 325° |
| 2026-05-08 15:24 | 39.55829 | 23.31059 | 14542 ft | 338 kts | 325° |
| 2026-05-08 15:24 | 39.57910 | 23.29600 | 15158 ft | 342 kts | 325° |
| 2026-05-08 15:25 | 39.60012 | 23.28121 | 15709 ft | 347 kts | 325° |
| 2026-05-08 15:25 | 39.62143 | 23.26619 | 16300 ft | 351 kts | 325° |
| 2026-05-08 15:25 | 39.64298 | 23.25098 | 16907 ft | 354 kts | 325° |
| 2026-05-08 15:25 | 39.66467 | 23.23563 | 17505 ft | 357 kts | 325° |
| 2026-05-08 15:26 | 39.68632 | 23.22032 | 18088 ft | 360 kts | 326° |
| 2026-05-08 15:26 | 39.70842 | 23.20472 | 18618 ft | 364 kts | 326° |
| 2026-05-08 15:26 | 39.73078 | 23.18897 | 19149 ft | 366 kts | 326° |
| 2026-05-08 15:26 | 39.75325 | 23.17314 | 19666 ft | 369 kts | 325° |
| 2026-05-08 15:27 | 39.77589 | 23.15716 | 20192 ft | 371 kts | 325° |
| 2026-05-08 15:27 | 39.79862 | 23.14105 | 20703 ft | 373 kts | 325° |
| 2026-05-08 15:27 | 39.82150 | 23.12481 | 21205 ft | 376 kts | 325° |
| 2026-05-08 15:27 | 39.84459 | 23.10838 | 21642 ft | 381 kts | 326° |
| 2026-05-08 15:28 | 39.86797 | 23.09172 | 22090 ft | 384 kts | 327° |
| 2026-05-08 15:28 | 39.89122 | 23.07518 | 22559 ft | 387 kts | 327° |
| 2026-05-08 15:28 | 39.91497 | 23.05832 | 23022 ft | 390 kts | 327° |
| 2026-05-08 15:28 | 39.93886 | 23.04134 | 23477 ft | 393 kts | 327° |
| 2026-05-08 15:29 | 39.96292 | 23.02418 | 23874 ft | 396 kts | 327° |
| 2026-05-08 15:29 | 39.98714 | 23.00687 | 24246 ft | 398 kts | 327° |
| 2026-05-08 15:29 | 40.01153 | 22.98947 | 24639 ft | 400 kts | 327° |
| 2026-05-08 15:29 | 40.03598 | 22.97202 | 25026 ft | 402 kts | 327° |
| 2026-05-08 15:30 | 40.06059 | 22.95443 | 25401 ft | 404 kts | 327° |
| 2026-05-08 15:30 | 40.08529 | 22.93676 | 25745 ft | 407 kts | 329° |
| 2026-05-08 15:30 | 40.11017 | 22.91898 | 26083 ft | 410 kts | 329° |
| 2026-05-08 15:30 | 40.13525 | 22.90104 | 26430 ft | 412 kts | 329° |
| 2026-05-08 15:31 | 40.16010 | 22.88322 | 26778 ft | 414 kts | 329° |
| 2026-05-08 15:31 | 40.18540 | 22.86503 | 27131 ft | 416 kts | 329° |
| 2026-05-08 15:31 | 40.21082 | 22.84675 | 27480 ft | 418 kts | 329° |
| 2026-05-08 15:31 | 40.23640 | 22.82837 | 27830 ft | 420 kts | 329° |
| 2026-05-08 15:32 | 40.26201 | 22.80994 | 28155 ft | 422 kts | 329° |
| 2026-05-08 15:32 | 40.28780 | 22.79134 | 28489 ft | 424 kts | 329° |
| 2026-05-08 15:32 | 40.31372 | 22.77262 | 28807 ft | 427 kts | 330° |
| 2026-05-08 15:32 | 40.33984 | 22.75375 | 29041 ft | 431 kts | 330° |
| 2026-05-08 15:33 | 40.36625 | 22.73468 | 29327 ft | 434 kts | 330° |
| 2026-05-08 15:33 | 40.39272 | 22.71555 | 29630 ft | 436 kts | 330° |
| 2026-05-08 15:33 | 40.41935 | 22.69630 | 29943 ft | 438 kts | 330° |
| 2026-05-08 15:33 | 40.44603 | 22.67694 | 30218 ft | 440 kts | 330° |
| 2026-05-08 15:34 | 40.47250 | 22.65770 | 30457 ft | 442 kts | 330° |
| 2026-05-08 15:34 | 40.49951 | 22.63809 | 30704 ft | 445 kts | 330° |
| 2026-05-08 15:34 | 40.52665 | 22.61841 | 30968 ft | 446 kts | 330° |
| 2026-05-08 15:34 | 40.55392 | 22.59867 | 31222 ft | 448 kts | 330° |
| 2026-05-08 15:35 | 40.58115 | 22.57891 | 31544 ft | 447 kts | 330° |
| 2026-05-08 15:35 | 40.60832 | 22.55914 | 31901 ft | 446 kts | 329° |
| 2026-05-08 15:35 | 40.63538 | 22.53939 | 32225 ft | 445 kts | 329° |
| 2026-05-08 15:35 | 40.66241 | 22.51964 | 32550 ft | 444 kts | 329° |
| 2026-05-08 15:36 | 40.68951 | 22.49985 | 32865 ft | 444 kts | 329° |
| 2026-05-08 15:36 | 40.70731 | 22.48685 | 33075 ft | 443 kts | 329° |
| 2026-05-08 15:36 | 40.74304 | 22.46069 | 33532 ft | 443 kts | 328° |
| 2026-05-08 15:36 | 40.76992 | 22.44100 | 33878 ft | 442 kts | 329° |
| 2026-05-08 15:37 | 40.79678 | 22.42130 | 34048 ft | 440 kts | 330° |
| 2026-05-08 15:37 | 40.82337 | 22.40180 | 34067 ft | 435 kts | 330° |
| 2026-05-08 15:37 | 40.87596 | 22.36323 | 34063 ft | 432 kts | 330° |
| 2026-05-08 15:38 | 40.92841 | 22.32462 | 34063 ft | 431 kts | 330° |
| 2026-05-08 15:38 | 40.98081 | 22.28594 | 34058 ft | 431 kts | 330° |
| 2026-05-08 15:39 | 41.03285 | 22.24747 | 34061 ft | 431 kts | 330° |
| 2026-05-08 15:39 | 41.08522 | 22.20865 | 34063 ft | 431 kts | 330° |
| 2026-05-08 15:40 | 41.13747 | 22.16992 | 34050 ft | 430 kts | 330° |
| 2026-05-08 15:40 | 41.18973 | 22.13111 | 34044 ft | 430 kts | 330° |
| 2026-05-08 15:41 | 41.24160 | 22.09245 | 34045 ft | 431 kts | 330° |
| 2026-05-08 15:41 | 41.29386 | 22.05343 | 34021 ft | 431 kts | 331° |
| 2026-05-08 15:42 | 41.34621 | 22.01443 | 34024 ft | 431 kts | 330° |
| 2026-05-08 15:42 | 41.39850 | 21.97526 | 34027 ft | 432 kts | 330° |
| 2026-05-08 15:43 | 41.44992 | 21.93399 | 34063 ft | 434 kts | 321° |
| 2026-05-08 15:43 | 41.47336 | 21.90821 | 34182 ft | 438 kts | 320° |
| 2026-05-08 15:43 | 41.49742 | 21.88173 | 34343 ft | 442 kts | 320° |
| 2026-05-08 15:44 | 41.52019 | 21.85673 | 34521 ft | 444 kts | 320° |
| 2026-05-08 15:44 | 41.54474 | 21.82979 | 34781 ft | 444 kts | 320° |
| 2026-05-08 15:44 | 41.56847 | 21.80375 | 35062 ft | 444 kts | 320° |
| 2026-05-08 15:44 | 41.59229 | 21.77753 | 35394 ft | 442 kts | 319° |
| 2026-05-08 15:45 | 41.61593 | 21.75142 | 35706 ft | 440 kts | 319° |
| 2026-05-08 15:45 | 41.63951 | 21.72533 | 35983 ft | 439 kts | 318° |
| 2026-05-08 15:45 | 41.66264 | 21.69971 | 36235 ft | 437 kts | 318° |
| 2026-05-08 15:45 | 41.68605 | 21.67376 | 36497 ft | 436 kts | 318° |
| 2026-05-08 15:46 | 41.70941 | 21.64784 | 36736 ft | 435 kts | 317° |
| 2026-05-08 15:46 | 41.73269 | 21.62202 | 36960 ft | 434 kts | 317° |
| 2026-05-08 15:46 | 41.75589 | 21.59627 | 37210 ft | 433 kts | 317° |
| 2026-05-08 15:46 | 41.77912 | 21.57048 | 37429 ft | 433 kts | 317° |
| 2026-05-08 15:47 | 41.80222 | 21.54483 | 37688 ft | 431 kts | 317° |
| 2026-05-08 15:47 | 41.82533 | 21.51915 | 37939 ft | 430 kts | 317° |
| 2026-05-08 15:47 | 41.87097 | 21.46822 | 38026 ft | 429 kts | 317° |
| 2026-05-08 15:48 | 41.93964 | 21.39132 | 38032 ft | 429 kts | 317° |
| 2026-05-08 15:49 | 41.98542 | 21.34001 | 38030 ft | 429 kts | 317° |
| 2026-05-08 15:49 | 42.03120 | 21.28852 | 38032 ft | 429 kts | 317° |
| 2026-05-08 15:50 | 42.07700 | 21.23698 | 38047 ft | 430 kts | 317° |
| 2026-05-08 15:50 | 42.12255 | 21.18563 | 38047 ft | 430 kts | 317° |
| 2026-05-08 15:51 | 42.16832 | 21.13397 | 38052 ft | 429 kts | 317° |
| 2026-05-08 15:51 | 42.21406 | 21.08224 | 38054 ft | 429 kts | 317° |
| 2026-05-08 15:52 | 42.25978 | 21.03044 | 38072 ft | 428 kts | 317° |
| 2026-05-08 15:52 | 42.30534 | 20.97864 | 38068 ft | 428 kts | 317° |
| 2026-05-08 15:53 | 42.35061 | 20.92708 | 38066 ft | 428 kts | 317° |
| 2026-05-08 15:53 | 42.39615 | 20.87512 | 38065 ft | 428 kts | 317° |
| 2026-05-08 15:54 | 42.44171 | 20.82311 | 38064 ft | 428 kts | 317° |
| 2026-05-08 15:54 | 42.48717 | 20.77106 | 38066 ft | 428 kts | 317° |
| 2026-05-08 15:55 | 42.53258 | 20.71895 | 38073 ft | 427 kts | 317° |
| 2026-05-08 15:55 | 42.60066 | 20.64065 | 38060 ft | 428 kts | 317° |
| 2026-05-08 15:56 | 42.64569 | 20.58870 | 38049 ft | 427 kts | 316° |
| 2026-05-08 15:56 | 42.69092 | 20.53640 | 38047 ft | 427 kts | 316° |
| 2026-05-08 15:57 | 42.73616 | 20.48398 | 38046 ft | 427 kts | 316° |
| 2026-05-08 15:57 | 42.78141 | 20.43150 | 38060 ft | 427 kts | 316° |
| 2026-05-08 15:58 | 42.82662 | 20.37897 | 38051 ft | 427 kts | 316° |
| 2026-05-08 15:58 | 42.87148 | 20.32670 | 38051 ft | 427 kts | 316° |
| 2026-05-08 15:59 | 42.91663 | 20.27395 | 38050 ft | 427 kts | 316° |
| 2026-05-08 15:59 | 42.96190 | 20.22105 | 38048 ft | 427 kts | 316° |
| 2026-05-08 16:00 | 43.00682 | 20.16848 | 38041 ft | 427 kts | 316° |
| 2026-05-08 16:00 | 43.04293 | 20.12605 | 38049 ft | 427 kts | 316° |
| 2026-05-08 16:01 | 43.06835 | 20.09617 | 38050 ft | 427 kts | 316° |
| 2026-05-08 16:01 | 43.11343 | 20.04317 | 38042 ft | 427 kts | 316° |
| 2026-05-08 16:02 | 43.15830 | 19.99018 | 38039 ft | 426 kts | 316° |
| 2026-05-08 16:02 | 43.20323 | 19.93704 | 38038 ft | 426 kts | 316° |
| 2026-05-08 16:03 | 43.24812 | 19.88393 | 38043 ft | 426 kts | 316° |
| 2026-05-08 16:03 | 43.29260 | 19.83098 | 38035 ft | 426 kts | 316° |
| 2026-05-08 16:04 | 43.33737 | 19.77764 | 38034 ft | 426 kts | 316° |
| 2026-05-08 16:04 | 43.38213 | 19.72429 | 38030 ft | 426 kts | 316° |
| 2026-05-08 16:05 | 43.42696 | 19.67084 | 38028 ft | 426 kts | 316° |
| 2026-05-08 16:05 | 43.47168 | 19.61730 | 38027 ft | 426 kts | 316° |
| 2026-05-08 16:06 | 43.51609 | 19.56404 | 38044 ft | 426 kts | 316° |
| 2026-05-08 16:06 | 43.56074 | 19.51046 | 38037 ft | 426 kts | 316° |
| 2026-05-08 16:07 | 43.60544 | 19.45685 | 38032 ft | 426 kts | 316° |
| 2026-05-08 16:07 | 43.65011 | 19.40311 | 38033 ft | 426 kts | 316° |
| 2026-05-08 16:08 | 43.69461 | 19.34927 | 38029 ft | 426 kts | 315° |
| 2026-05-08 16:08 | 43.73878 | 19.29568 | 38040 ft | 425 kts | 315° |
| 2026-05-08 16:09 | 43.78312 | 19.24188 | 37647 ft | 420 kts | 315° |
| 2026-05-08 16:09 | 43.80528 | 19.21495 | 36528 ft | 430 kts | 315° |
| 2026-05-08 16:09 | 43.82797 | 19.18728 | 35448 ft | 440 kts | 315° |
| 2026-05-08 16:10 | 43.85117 | 19.15894 | 34569 ft | 447 kts | 315° |
| 2026-05-08 16:10 | 43.87459 | 19.13035 | 34204 ft | 452 kts | 315° |
| 2026-05-08 16:10 | 43.89829 | 19.10143 | 34019 ft | 456 kts | 315° |
| 2026-05-08 16:10 | 43.92182 | 19.07269 | 34020 ft | 457 kts | 315° |
| 2026-05-08 16:11 | 43.97025 | 19.01345 | 34027 ft | 459 kts | 315° |
| 2026-05-08 16:11 | 44.01804 | 18.95486 | 34027 ft | 458 kts | 315° |
| 2026-05-08 16:12 | 44.06552 | 18.89656 | 34030 ft | 458 kts | 315° |
| 2026-05-08 16:12 | 44.11322 | 18.83773 | 34041 ft | 458 kts | 315° |
| 2026-05-08 16:13 | 44.16088 | 18.77888 | 34033 ft | 458 kts | 315° |
| 2026-05-08 16:13 | 44.20850 | 18.71993 | 34028 ft | 458 kts | 315° |
| 2026-05-08 16:14 | 44.25609 | 18.66082 | 34026 ft | 458 kts | 315° |
| 2026-05-08 16:14 | 44.30333 | 18.60209 | 34023 ft | 458 kts | 315° |
| 2026-05-08 16:15 | 44.35089 | 18.54290 | 34023 ft | 458 kts | 315° |
| 2026-05-08 16:15 | 44.39840 | 18.48366 | 34022 ft | 458 kts | 315° |
| 2026-05-08 16:16 | 44.44576 | 18.42430 | 34021 ft | 457 kts | 314° |
| 2026-05-08 16:16 | 44.49316 | 18.36478 | 34022 ft | 457 kts | 314° |
| 2026-05-08 16:17 | 44.53242 | 18.31537 | 34037 ft | 456 kts | 314° |
| 2026-05-08 16:17 | 44.58723 | 18.24621 | 34037 ft | 455 kts | 314° |
| 2026-05-08 16:18 | 44.63428 | 18.18681 | 34034 ft | 455 kts | 314° |
| 2026-05-08 16:18 | 44.68134 | 18.12727 | 34032 ft | 454 kts | 314° |
| 2026-05-08 16:19 | 44.72818 | 18.06782 | 34041 ft | 454 kts | 314° |
| 2026-05-08 16:19 | 44.77504 | 18.00813 | 34012 ft | 454 kts | 314° |
| 2026-05-08 16:20 | 44.82189 | 17.94841 | 34011 ft | 455 kts | 314° |
| 2026-05-08 16:20 | 44.86871 | 17.88856 | 34004 ft | 455 kts | 314° |
| 2026-05-08 16:21 | 44.91554 | 17.82855 | 34002 ft | 455 kts | 314° |
| 2026-05-08 16:21 | 44.96239 | 17.76845 | 34015 ft | 455 kts | 314° |
| 2026-05-08 16:22 | 45.00926 | 17.70817 | 34017 ft | 455 kts | 313° |
| 2026-05-08 16:22 | 45.05607 | 17.64776 | 34013 ft | 455 kts | 313° |
| 2026-05-08 16:23 | 45.10251 | 17.58769 | 34020 ft | 455 kts | 313° |
| 2026-05-08 16:23 | 45.14918 | 17.52714 | 34033 ft | 455 kts | 313° |
| 2026-05-08 16:24 | 45.19587 | 17.46648 | 34029 ft | 455 kts | 313° |
| 2026-05-08 16:24 | 45.24256 | 17.40577 | 34039 ft | 455 kts | 313° |
| 2026-05-08 16:25 | 45.28915 | 17.34503 | 34038 ft | 455 kts | 313° |
| 2026-05-08 16:25 | 45.33535 | 17.28462 | 34042 ft | 454 kts | 313° |
| 2026-05-08 16:26 | 45.38212 | 17.22330 | 34051 ft | 454 kts | 313° |
| 2026-05-08 16:26 | 45.42847 | 17.16240 | 34044 ft | 453 kts | 312° |
| 2026-05-08 16:27 | 45.47446 | 17.10186 | 34036 ft | 453 kts | 312° |
| 2026-05-08 16:27 | 45.52063 | 17.04085 | 34030 ft | 453 kts | 312° |
| 2026-05-08 16:28 | 45.56689 | 16.97966 | 34044 ft | 453 kts | 312° |
| 2026-05-08 16:28 | 45.61305 | 16.91857 | 34038 ft | 453 kts | 312° |
| 2026-05-08 16:29 | 45.65922 | 16.85718 | 34033 ft | 453 kts | 312° |
| 2026-05-08 16:29 | 45.70528 | 16.79570 | 34031 ft | 453 kts | 312° |
| 2026-05-08 16:30 | 45.75094 | 16.73463 | 34039 ft | 453 kts | 312° |
| 2026-05-08 16:30 | 45.79694 | 16.67315 | 34059 ft | 452 kts | 312° |
| 2026-05-08 16:31 | 45.84280 | 16.61163 | 34058 ft | 451 kts | 311° |
| 2026-05-08 16:31 | 45.88853 | 16.54997 | 34055 ft | 451 kts | 311° |
| 2026-05-08 16:32 | 45.93391 | 16.48875 | 34034 ft | 450 kts | 311° |
| 2026-05-08 16:32 | 45.97954 | 16.42716 | 34043 ft | 450 kts | 311° |
| 2026-05-08 16:33 | 46.02504 | 16.36553 | 34054 ft | 449 kts | 311° |
| 2026-05-08 16:33 | 46.07036 | 16.30394 | 34057 ft | 448 kts | 311° |
| 2026-05-08 16:34 | 46.11563 | 16.24227 | 34059 ft | 447 kts | 311° |
| 2026-05-08 16:34 | 46.16108 | 16.18022 | 34048 ft | 447 kts | 311° |
| 2026-05-08 16:35 | 46.20620 | 16.11855 | 34052 ft | 447 kts | 311° |
| 2026-05-08 16:35 | 46.25098 | 16.05713 | 34046 ft | 448 kts | 311° |
| 2026-05-08 16:36 | 46.29588 | 15.99479 | 34041 ft | 447 kts | 310° |
| 2026-05-08 16:36 | 46.33985 | 15.93114 | 34035 ft | 447 kts | 309° |
| 2026-05-08 16:37 | 46.38345 | 15.86708 | 34035 ft | 447 kts | 309° |
| 2026-05-08 16:37 | 46.42791 | 15.80199 | 34017 ft | 447 kts | 310° |
| 2026-05-08 16:38 | 46.47174 | 15.73798 | 34015 ft | 447 kts | 310° |
| 2026-05-08 16:38 | 46.51566 | 15.67391 | 34024 ft | 447 kts | 309° |
| 2026-05-08 16:39 | 46.55917 | 15.61021 | 34027 ft | 447 kts | 309° |
| 2026-05-08 16:39 | 46.60284 | 15.54595 | 34029 ft | 447 kts | 309° |
| 2026-05-08 16:40 | 46.64643 | 15.48164 | 34051 ft | 445 kts | 309° |
| 2026-05-08 16:40 | 46.68982 | 15.41736 | 34056 ft | 445 kts | 309° |
| 2026-05-08 16:41 | 46.73293 | 15.35348 | 34064 ft | 445 kts | 309° |